KCID/CID METAR and TAF weather

Enter ICAO airport designator
Station Type Date Time Source
KCID METAR 2020/08/05 16:52 UTC NOAA

KCID 051652Z 22008KT 10SM FEW043 22/12 A3013 RMK AO2 SLP203 T02220122


Station Type Date Time Source
KCID Decoded METAR 2020/08/05 16:52 UTC NOAA

CEDAR RAPIDS AIRPORT, IA, United States (KCID) 41-53N 91-43W
Aug 05, 2020 - 12:52 PM EDT / 2020.08.05 1652 UTC
Wind: from the SW (220 degrees) at 9 MPH (8 KT):0
Visibility: 10 mile(s):0
Sky conditions: mostly clear
Temperature: 72.0 F (22.2 C)
Dew Point: 54.0 F (12.2 C)
Relative Humidity: 53%
Pressure (altimeter): 30.13 in. Hg (1020 hPa)
ob: KCID 051652Z 22008KT 10SM FEW043 22/12 A3013 RMK AO2 SLP203 T02220122
cycle: 17

Station Type Date Time Source
KCID TAF 2020/08/05 12:27 UTC NOAA

TAF KCID 051123Z 0512/0612 VRB03KT P6SM SCT250
FM051600 22006KT P6SM SCT040 BKN250

Example: see airport list